sensor_id;sensor_type;location;lat;lon;timestamp;P1;durP1;ratioP1;P2;durP2;ratioP2
33357;SDS011;19717;42.614;23.418;2022-12-10T00:00:08;2.60;;;1.80;;
33357;SDS011;19717;42.614;23.418;2022-12-10T00:02:34;4.38;;;2.50;;
33357;SDS011;19717;42.614;23.418;2022-12-10T00:05:00;8.95;;;2.97;;
33357;SDS011;19717;42.614;23.418;2022-12-10T00:07:26;3.70;;;3.13;;
33357;SDS011;19717;42.614;23.418;2022-12-10T00:09:52;6.15;;;3.50;;
33357;SDS011;19717;42.614;23.418;2022-12-10T00:12:18;8.20;;;3.15;;
33357;SDS011;19717;42.614;23.418;2022-12-10T00:14:45;8.57;;;4.15;;
33357;SDS011;19717;42.614;23.418;2022-12-10T00:17:11;5.15;;;3.35;;
33357;SDS011;19717;42.614;23.418;2022-12-10T00:19:37;13.38;;;7.50;;
33357;SDS011;19717;42.614;23.418;2022-12-10T00:22:03;19.77;;;9.02;;
33357;SDS011;19717;42.614;23.418;2022-12-10T00:24:29;10.85;;;6.07;;
33357;SDS011;19717;42.614;23.418;2022-12-10T00:26:55;6.68;;;2.92;;
33357;SDS011;19717;42.614;23.418;2022-12-10T00:29:21;3.92;;;1.90;;
33357;SDS011;19717;42.614;23.418;2022-12-10T00:31:47;5.88;;;3.28;;
33357;SDS011;19717;42.614;23.418;2022-12-10T00:34:13;6.28;;;3.35;;
33357;SDS011;19717;42.614;23.418;2022-12-10T00:36:44;10.00;;;5.18;;
33357;SDS011;19717;42.614;23.418;2022-12-10T00:39:15;6.10;;;3.50;;
33357;SDS011;19717;42.614;23.418;2022-12-10T00:41:42;8.73;;;3.65;;
33357;SDS011;19717;42.614;23.418;2022-12-10T00:44:08;8.38;;;4.00;;
33357;SDS011;19717;42.614;23.418;2022-12-10T00:46:35;5.68;;;3.65;;
33357;SDS011;19717;42.614;23.418;2022-12-10T00:49:01;8.52;;;5.22;;
33357;SDS011;19717;42.614;23.418;2022-12-10T00:51:28;6.63;;;3.28;;
33357;SDS011;19717;42.614;23.418;2022-12-10T00:53:55;8.90;;;5.50;;
33357;SDS011;19717;42.614;23.418;2022-12-10T00:56:22;3.80;;;2.60;;
33357;SDS011;19717;42.614;23.418;2022-12-10T00:58:48;5.70;;;2.72;;
33357;SDS011;19717;42.614;23.418;2022-12-10T01:01:25;5.43;;;4.25;;
33357;SDS011;19717;42.614;23.418;2022-12-10T01:03:56;2.88;;;2.42;;
33357;SDS011;19717;42.614;23.418;2022-12-10T01:08:50;2.42;;;2.10;;
33357;SDS011;19717;42.614;23.418;2022-12-10T01:11:17;4.90;;;2.92;;
33357;SDS011;19717;42.614;23.418;2022-12-10T01:13:43;5.43;;;2.28;;
33357;SDS011;19717;42.614;23.418;2022-12-10T01:16:10;2.00;;;1.75;;
33357;SDS011;19717;42.614;23.418;2022-12-10T01:18:37;3.75;;;2.47;;
33357;SDS011;19717;42.614;23.418;2022-12-10T01:21:04;10.50;;;2.85;;
33357;SDS011;19717;42.614;23.418;2022-12-10T01:23:31;4.22;;;2.28;;
33357;SDS011;19717;42.614;23.418;2022-12-10T01:26:16;4.10;;;2.90;;
33357;SDS011;19717;42.614;23.418;2022-12-10T01:28:43;6.70;;;3.67;;
33357;SDS011;19717;42.614;23.418;2022-12-10T01:31:10;2.72;;;2.25;;
33357;SDS011;19717;42.614;23.418;2022-12-10T01:33:37;3.88;;;2.45;;
33357;SDS011;19717;42.614;23.418;2022-12-10T01:36:05;3.88;;;2.38;;
33357;SDS011;19717;42.614;23.418;2022-12-10T01:38:31;5.95;;;2.45;;
33357;SDS011;19717;42.614;23.418;2022-12-10T01:40:58;5.32;;;3.50;;
33357;SDS011;19717;42.614;23.418;2022-12-10T01:43:24;3.22;;;1.83;;
33357;SDS011;19717;42.614;23.418;2022-12-10T01:45:51;7.05;;;2.30;;
33357;SDS011;19717;42.614;23.418;2022-12-10T01:48:17;2.70;;;2.05;;
33357;SDS011;19717;42.614;23.418;2022-12-10T01:50:43;2.55;;;1.50;;
33357;SDS011;19717;42.614;23.418;2022-12-10T01:53:09;2.40;;;1.80;;
33357;SDS011;19717;42.614;23.418;2022-12-10T01:58:02;2.33;;;1.95;;
33357;SDS011;19717;42.614;23.418;2022-12-10T02:00:28;2.63;;;1.55;;
33357;SDS011;19717;42.614;23.418;2022-12-10T02:03:01;3.22;;;1.60;;
33357;SDS011;19717;42.614;23.418;2022-12-10T02:08:05;1.73;;;1.60;;
33357;SDS011;19717;42.614;23.418;2022-12-10T02:20:52;0.90;;;0.52;;
33357;SDS011;19717;42.614;23.418;2022-12-10T02:23:26;0.30;;;0.30;;
33357;SDS011;19717;42.614;23.418;2022-12-10T02:26:01;2.67;;;1.13;;
33357;SDS011;19717;42.614;23.418;2022-12-10T02:31:00;1.25;;;0.65;;
33357;SDS011;19717;42.614;23.418;2022-12-10T02:33:27;0.60;;;0.50;;
33357;SDS011;19717;42.614;23.418;2022-12-10T02:35:55;0.40;;;0.40;;
33357;SDS011;19717;42.614;23.418;2022-12-10T02:38:26;0.50;;;0.50;;
33357;SDS011;19717;42.614;23.418;2022-12-10T02:40:54;0.40;;;0.40;;
33357;SDS011;19717;42.614;23.418;2022-12-10T02:43:21;0.45;;;0.45;;
33357;SDS011;19717;42.614;23.418;2022-12-10T02:45:48;2.80;;;1.25;;
33357;SDS011;19717;42.614;23.418;2022-12-10T02:48:15;0.50;;;0.50;;
33357;SDS011;19717;42.614;23.418;2022-12-10T02:50:42;3.10;;;0.90;;
33357;SDS011;19717;42.614;23.418;2022-12-10T02:53:09;0.77;;;0.75;;
33357;SDS011;19717;42.614;23.418;2022-12-10T02:55:46;0.77;;;0.77;;
33357;SDS011;19717;42.614;23.418;2022-12-10T02:58:32;0.68;;;0.68;;
33357;SDS011;19717;42.614;23.418;2022-12-10T03:01:07;1.10;;;0.93;;
33357;SDS011;19717;42.614;23.418;2022-12-10T03:06:12;0.40;;;0.40;;
33357;SDS011;19717;42.614;23.418;2022-12-10T03:08:45;0.73;;;0.73;;
33357;SDS011;19717;42.614;23.418;2022-12-10T03:11:19;0.45;;;0.45;;
33357;SDS011;19717;42.614;23.418;2022-12-10T03:16:16;1.83;;;1.13;;
33357;SDS011;19717;42.614;23.418;2022-12-10T03:18:42;0.73;;;0.73;;
33357;SDS011;19717;42.614;23.418;2022-12-10T03:21:10;0.65;;;0.57;;
33357;SDS011;19717;42.614;23.418;2022-12-10T03:23:38;0.38;;;0.38;;
33357;SDS011;19717;42.614;23.418;2022-12-10T03:26:05;0.70;;;0.57;;
33357;SDS011;19717;42.614;23.418;2022-12-10T03:28:35;0.50;;;0.50;;
33357;SDS011;19717;42.614;23.418;2022-12-10T03:31:03;0.50;;;0.50;;
33357;SDS011;19717;42.614;23.418;2022-12-10T03:33:29;7.10;;;0.68;;
33357;SDS011;19717;42.614;23.418;2022-12-10T03:35:56;0.93;;;0.47;;
33357;SDS011;19717;42.614;23.418;2022-12-10T03:38:22;0.30;;;0.30;;
33357;SDS011;19717;42.614;23.418;2022-12-10T03:40:48;0.47;;;0.47;;
33357;SDS011;19717;42.614;23.418;2022-12-10T03:43:14;0.70;;;0.70;;
33357;SDS011;19717;42.614;23.418;2022-12-10T03:45:40;1.02;;;0.98;;
33357;SDS011;19717;42.614;23.418;2022-12-10T03:48:06;0.43;;;0.43;;
33357;SDS011;19717;42.614;23.418;2022-12-10T03:50:33;2.58;;;0.60;;
33357;SDS011;19717;42.614;23.418;2022-12-10T03:52:59;0.40;;;0.40;;
33357;SDS011;19717;42.614;23.418;2022-12-10T03:55:25;1.55;;;1.30;;
33357;SDS011;19717;42.614;23.418;2022-12-10T03:57:51;1.35;;;1.25;;
33357;SDS011;19717;42.614;23.418;2022-12-10T04:00:17;0.35;;;0.35;;
33357;SDS011;19717;42.614;23.418;2022-12-10T04:02:43;1.00;;;0.68;;
33357;SDS011;19717;42.614;23.418;2022-12-10T04:05:09;1.20;;;0.65;;
33357;SDS011;19717;42.614;23.418;2022-12-10T04:07:35;7.15;;;4.32;;
33357;SDS011;19717;42.614;23.418;2022-12-10T04:10:02;4.55;;;3.03;;
33357;SDS011;19717;42.614;23.418;2022-12-10T04:12:28;5.85;;;2.60;;
33357;SDS011;19717;42.614;23.418;2022-12-10T04:14:54;2.00;;;1.00;;
33357;SDS011;19717;42.614;23.418;2022-12-10T04:17:47;1.50;;;1.02;;
33357;SDS011;19717;42.614;23.418;2022-12-10T04:20:13;2.55;;;1.50;;
33357;SDS011;19717;42.614;23.418;2022-12-10T04:22:57;0.57;;;0.57;;
33357;SDS011;19717;42.614;23.418;2022-12-10T04:25:42;5.68;;;0.95;;
33357;SDS011;19717;42.614;23.418;2022-12-10T04:28:27;0.68;;;0.68;;
33357;SDS011;19717;42.614;23.418;2022-12-10T04:30:53;0.82;;;0.82;;
33357;SDS011;19717;42.614;23.418;2022-12-10T04:33:19;0.60;;;0.60;;
33357;SDS011;19717;42.614;23.418;2022-12-10T04:35:45;0.35;;;0.35;;
33357;SDS011;19717;42.614;23.418;2022-12-10T04:38:11;0.30;;;0.30;;
33357;SDS011;19717;42.614;23.418;2022-12-10T04:40:37;1.05;;;0.50;;
33357;SDS011;19717;42.614;23.418;2022-12-10T04:43:03;1.95;;;0.75;;
33357;SDS011;19717;42.614;23.418;2022-12-10T04:45:29;0.40;;;0.40;;
33357;SDS011;19717;42.614;23.418;2022-12-10T04:47:55;0.40;;;0.40;;
33357;SDS011;19717;42.614;23.418;2022-12-10T04:50:21;0.30;;;0.30;;
33357;SDS011;19717;42.614;23.418;2022-12-10T04:52:47;0.52;;;0.52;;
33357;SDS011;19717;42.614;23.418;2022-12-10T04:55:13;0.40;;;0.40;;
33357;SDS011;19717;42.614;23.418;2022-12-10T04:57:41;0.73;;;0.73;;
33357;SDS011;19717;42.614;23.418;2022-12-10T05:00:08;0.82;;;0.80;;
33357;SDS011;19717;42.614;23.418;2022-12-10T05:02:34;7.15;;;1.08;;
33357;SDS011;19717;42.614;23.418;2022-12-10T05:05:00;1.02;;;0.90;;
33357;SDS011;19717;42.614;23.418;2022-12-10T05:07:26;1.90;;;1.33;;
33357;SDS011;19717;42.614;23.418;2022-12-10T05:09:52;3.50;;;1.45;;
33357;SDS011;19717;42.614;23.418;2022-12-10T05:12:18;8.10;;;1.13;;
33357;SDS011;19717;42.614;23.418;2022-12-10T05:14:44;4.80;;;1.10;;
33357;SDS011;19717;42.614;23.418;2022-12-10T05:17:10;2.22;;;1.20;;
33357;SDS011;19717;42.614;23.418;2022-12-10T05:19:36;1.13;;;0.93;;
33357;SDS011;19717;42.614;23.418;2022-12-10T05:22:02;0.82;;;0.70;;
33357;SDS011;19717;42.614;23.418;2022-12-10T05:24:47;2.63;;;1.67;;
33357;SDS011;19717;42.614;23.418;2022-12-10T05:27:13;6.78;;;3.00;;
33357;SDS011;19717;42.614;23.418;2022-12-10T05:29:39;4.85;;;2.22;;
33357;SDS011;19717;42.614;23.418;2022-12-10T05:32:05;3.08;;;2.38;;
33357;SDS011;19717;42.614;23.418;2022-12-10T05:34:31;7.28;;;3.92;;
33357;SDS011;19717;42.614;23.418;2022-12-10T05:36:57;2.70;;;1.42;;
33357;SDS011;19717;42.614;23.418;2022-12-10T05:39:23;3.42;;;1.70;;
33357;SDS011;19717;42.614;23.418;2022-12-10T05:41:49;2.22;;;1.27;;
33357;SDS011;19717;42.614;23.418;2022-12-10T05:44:15;1.92;;;1.42;;
33357;SDS011;19717;42.614;23.418;2022-12-10T05:46:41;2.55;;;1.80;;
33357;SDS011;19717;42.614;23.418;2022-12-10T05:49:07;5.43;;;1.33;;
33357;SDS011;19717;42.614;23.418;2022-12-10T05:51:34;2.03;;;1.30;;
33357;SDS011;19717;42.614;23.418;2022-12-10T05:54:01;1.38;;;1.27;;
33357;SDS011;19717;42.614;23.418;2022-12-10T05:56:28;2.25;;;1.42;;
33357;SDS011;19717;42.614;23.418;2022-12-10T05:58:56;2.75;;;1.80;;
33357;SDS011;19717;42.614;23.418;2022-12-10T06:01:24;7.38;;;2.75;;
33357;SDS011;19717;42.614;23.418;2022-12-10T06:03:50;3.97;;;1.80;;
33357;SDS011;19717;42.614;23.418;2022-12-10T06:06:24;1.88;;;1.42;;
33357;SDS011;19717;42.614;23.418;2022-12-10T06:08:51;0.95;;;0.88;;
33357;SDS011;19717;42.614;23.418;2022-12-10T06:11:17;3.85;;;1.92;;
33357;SDS011;19717;42.614;23.418;2022-12-10T06:13:43;5.78;;;1.85;;
33357;SDS011;19717;42.614;23.418;2022-12-10T06:16:10;1.75;;;1.63;;
33357;SDS011;19717;42.614;23.418;2022-12-10T06:18:36;7.63;;;2.38;;
33357;SDS011;19717;42.614;23.418;2022-12-10T06:21:03;3.40;;;2.55;;
33357;SDS011;19717;42.614;23.418;2022-12-10T06:23:29;5.30;;;2.03;;
33357;SDS011;19717;42.614;23.418;2022-12-10T06:25:55;1.77;;;1.35;;
33357;SDS011;19717;42.614;23.418;2022-12-10T06:28:21;1.77;;;1.50;;
33357;SDS011;19717;42.614;23.418;2022-12-10T06:30:47;1.98;;;1.02;;
33357;SDS011;19717;42.614;23.418;2022-12-10T06:33:13;1.83;;;1.55;;
33357;SDS011;19717;42.614;23.418;2022-12-10T06:35:39;6.50;;;1.58;;
33357;SDS011;19717;42.614;23.418;2022-12-10T06:38:05;2.08;;;1.23;;
33357;SDS011;19717;42.614;23.418;2022-12-10T06:40:31;2.15;;;1.63;;
33357;SDS011;19717;42.614;23.418;2022-12-10T06:42:57;7.00;;;4.80;;
33357;SDS011;19717;42.614;23.418;2022-12-10T06:45:23;3.20;;;2.33;;
33357;SDS011;19717;42.614;23.418;2022-12-10T06:47:49;4.45;;;2.35;;
33357;SDS011;19717;42.614;23.418;2022-12-10T06:50:16;1.98;;;1.58;;
33357;SDS011;19717;42.614;23.418;2022-12-10T06:52:42;2.08;;;1.85;;
33357;SDS011;19717;42.614;23.418;2022-12-10T06:55:08;3.55;;;1.50;;
33357;SDS011;19717;42.614;23.418;2022-12-10T06:57:34;2.85;;;1.67;;
33357;SDS011;19717;42.614;23.418;2022-12-10T07:00:00;4.22;;;2.00;;
33357;SDS011;19717;42.614;23.418;2022-12-10T07:02:26;6.90;;;2.22;;
33357;SDS011;19717;42.614;23.418;2022-12-10T07:04:52;4.68;;;3.03;;
33357;SDS011;19717;42.614;23.418;2022-12-10T07:07:21;6.00;;;2.88;;
33357;SDS011;19717;42.614;23.418;2022-12-10T07:09:47;4.72;;;3.85;;
33357;SDS011;19717;42.614;23.418;2022-12-10T07:12:13;4.00;;;2.75;;
33357;SDS011;19717;42.614;23.418;2022-12-10T07:14:40;4.80;;;2.20;;
33357;SDS011;19717;42.614;23.418;2022-12-10T07:17:06;2.65;;;2.42;;
33357;SDS011;19717;42.614;23.418;2022-12-10T07:19:32;1.90;;;1.52;;
33357;SDS011;19717;42.614;23.418;2022-12-10T07:21:58;2.33;;;2.15;;
33357;SDS011;19717;42.614;23.418;2022-12-10T07:24:24;2.80;;;2.28;;
33357;SDS011;19717;42.614;23.418;2022-12-10T07:26:51;3.40;;;2.28;;
33357;SDS011;19717;42.614;23.418;2022-12-10T07:29:18;5.35;;;1.70;;
33357;SDS011;19717;42.614;23.418;2022-12-10T07:31:44;3.65;;;2.10;;
33357;SDS011;19717;42.614;23.418;2022-12-10T07:34:11;10.73;;;3.15;;
33357;SDS011;19717;42.614;23.418;2022-12-10T07:36:37;3.10;;;2.80;;
33357;SDS011;19717;42.614;23.418;2022-12-10T07:39:07;1.63;;;1.13;;
33357;SDS011;19717;42.614;23.418;2022-12-10T07:41:34;5.43;;;2.72;;
33357;SDS011;19717;42.614;23.418;2022-12-10T07:44:01;4.45;;;2.67;;
33357;SDS011;19717;42.614;23.418;2022-12-10T07:46:29;3.67;;;2.53;;
33357;SDS011;19717;42.614;23.418;2022-12-10T07:49:02;2.30;;;2.10;;
33357;SDS011;19717;42.614;23.418;2022-12-10T07:51:28;9.25;;;3.67;;
33357;SDS011;19717;42.614;23.418;2022-12-10T07:53:54;3.58;;;2.58;;
33357;SDS011;19717;42.614;23.418;2022-12-10T07:56:20;2.72;;;1.77;;
33357;SDS011;19717;42.614;23.418;2022-12-10T07:58:47;5.05;;;2.55;;
33357;SDS011;19717;42.614;23.418;2022-12-10T08:01:17;5.90;;;2.85;;
33357;SDS011;19717;42.614;23.418;2022-12-10T08:03:44;6.32;;;4.03;;
33357;SDS011;19717;42.614;23.418;2022-12-10T08:06:11;8.25;;;4.35;;
33357;SDS011;19717;42.614;23.418;2022-12-10T08:08:38;11.65;;;5.10;;
33357;SDS011;19717;42.614;23.418;2022-12-10T08:11:05;6.10;;;3.97;;
33357;SDS011;19717;42.614;23.418;2022-12-10T08:13:31;4.93;;;3.38;;
33357;SDS011;19717;42.614;23.418;2022-12-10T08:16:05;6.10;;;3.92;;
33357;SDS011;19717;42.614;23.418;2022-12-10T08:18:31;7.78;;;4.85;;
33357;SDS011;19717;42.614;23.418;2022-12-10T08:20:58;8.25;;;4.35;;
33357;SDS011;19717;42.614;23.418;2022-12-10T08:23:24;6.63;;;3.65;;
33357;SDS011;19717;42.614;23.418;2022-12-10T08:25:50;4.88;;;3.15;;
33357;SDS011;19717;42.614;23.418;2022-12-10T08:28:16;5.32;;;3.25;;
33357;SDS011;19717;42.614;23.418;2022-12-10T08:30:48;4.60;;;3.42;;
33357;SDS011;19717;42.614;23.418;2022-12-10T08:35:40;8.43;;;4.35;;
33357;SDS011;19717;42.614;23.418;2022-12-10T08:38:06;3.40;;;2.72;;
33357;SDS011;19717;42.614;23.418;2022-12-10T08:40:32;5.63;;;4.32;;
33357;SDS011;19717;42.614;23.418;2022-12-10T08:42:58;5.70;;;3.17;;
33357;SDS011;19717;42.614;23.418;2022-12-10T08:45:24;7.63;;;3.70;;
33357;SDS011;19717;42.614;23.418;2022-12-10T08:47:51;4.40;;;3.33;;
33357;SDS011;19717;42.614;23.418;2022-12-10T08:50:17;6.97;;;3.53;;
33357;SDS011;19717;42.614;23.418;2022-12-10T08:52:43;7.72;;;4.63;;
33357;SDS011;19717;42.614;23.418;2022-12-10T08:55:09;7.50;;;4.55;;
33357;SDS011;19717;42.614;23.418;2022-12-10T08:57:35;5.75;;;3.70;;
33357;SDS011;19717;42.614;23.418;2022-12-10T09:00:02;6.35;;;3.78;;
33357;SDS011;19717;42.614;23.418;2022-12-10T09:02:28;3.97;;;2.88;;
33357;SDS011;19717;42.614;23.418;2022-12-10T09:04:54;11.52;;;3.20;;
33357;SDS011;19717;42.614;23.418;2022-12-10T09:07:20;7.20;;;4.60;;
33357;SDS011;19717;42.614;23.418;2022-12-10T09:09:46;5.43;;;2.55;;
33357;SDS011;19717;42.614;23.418;2022-12-10T09:12:13;4.47;;;2.78;;
33357;SDS011;19717;42.614;23.418;2022-12-10T09:14:39;6.05;;;3.58;;
33357;SDS011;19717;42.614;23.418;2022-12-10T09:17:06;5.50;;;3.00;;
33357;SDS011;19717;42.614;23.418;2022-12-10T09:19:33;7.15;;;3.90;;
33357;SDS011;19717;42.614;23.418;2022-12-10T09:21:59;7.28;;;3.67;;
33357;SDS011;19717;42.614;23.418;2022-12-10T09:24:25;6.85;;;4.47;;
33357;SDS011;19717;42.614;23.418;2022-12-10T09:26:51;4.55;;;3.45;;
33357;SDS011;19717;42.614;23.418;2022-12-10T09:29:17;5.70;;;5.18;;
33357;SDS011;19717;42.614;23.418;2022-12-10T09:31:43;4.35;;;3.30;;
33357;SDS011;19717;42.614;23.418;2022-12-10T09:34:09;6.68;;;2.92;;
33357;SDS011;19717;42.614;23.418;2022-12-10T09:36:35;5.78;;;3.25;;
33357;SDS011;19717;42.614;23.418;2022-12-10T09:39:01;10.15;;;2.92;;
33357;SDS011;19717;42.614;23.418;2022-12-10T09:46:40;7.68;;;3.47;;
33357;SDS011;19717;42.614;23.418;2022-12-10T09:51:35;5.22;;;2.85;;
33357;SDS011;19717;42.614;23.418;2022-12-10T09:54:02;7.22;;;3.72;;
33357;SDS011;19717;42.614;23.418;2022-12-10T09:56:31;4.28;;;2.55;;
33357;SDS011;19717;42.614;23.418;2022-12-10T09:59:00;8.15;;;3.75;;
33357;SDS011;19717;42.614;23.418;2022-12-10T10:01:28;4.40;;;2.53;;
33357;SDS011;19717;42.614;23.418;2022-12-10T10:03:55;3.38;;;2.28;;
33357;SDS011;19717;42.614;23.418;2022-12-10T10:06:22;5.25;;;3.22;;
33357;SDS011;19717;42.614;23.418;2022-12-10T10:08:53;4.60;;;2.47;;
33357;SDS011;19717;42.614;23.418;2022-12-10T10:11:22;6.72;;;3.28;;
33357;SDS011;19717;42.614;23.418;2022-12-10T10:13:52;6.72;;;3.65;;
33357;SDS011;19717;42.614;23.418;2022-12-10T10:19:25;11.07;;;4.93;;
33357;SDS011;19717;42.614;23.418;2022-12-10T10:21:51;5.93;;;3.63;;
33357;SDS011;19717;42.614;23.418;2022-12-10T10:24:19;10.23;;;4.13;;
33357;SDS011;19717;42.614;23.418;2022-12-10T10:26:46;3.65;;;2.08;;
33357;SDS011;19717;42.614;23.418;2022-12-10T10:29:13;8.43;;;4.78;;
33357;SDS011;19717;42.614;23.418;2022-12-10T10:31:40;7.10;;;4.10;;
33357;SDS011;19717;42.614;23.418;2022-12-10T10:34:20;5.32;;;3.03;;
33357;SDS011;19717;42.614;23.418;2022-12-10T10:36:46;6.80;;;3.08;;
33357;SDS011;19717;42.614;23.418;2022-12-10T10:41:43;5.68;;;2.70;;
33357;SDS011;19717;42.614;23.418;2022-12-10T10:44:14;7.00;;;3.72;;
33357;SDS011;19717;42.614;23.418;2022-12-10T10:46:42;8.02;;;3.42;;
33357;SDS011;19717;42.614;23.418;2022-12-10T10:49:12;8.55;;;4.00;;
33357;SDS011;19717;42.614;23.418;2022-12-10T10:51:41;5.28;;;3.22;;
33357;SDS011;19717;42.614;23.418;2022-12-10T10:54:08;4.80;;;2.90;;
33357;SDS011;19717;42.614;23.418;2022-12-10T10:56:41;2.53;;;1.90;;
33357;SDS011;19717;42.614;23.418;2022-12-10T11:01:50;6.32;;;2.55;;
33357;SDS011;19717;42.614;23.418;2022-12-10T11:04:22;5.57;;;1.88;;
33357;SDS011;19717;42.614;23.418;2022-12-10T11:06:50;3.28;;;2.15;;
33357;SDS011;19717;42.614;23.418;2022-12-10T11:09:23;3.88;;;2.80;;
33357;SDS011;19717;42.614;23.418;2022-12-10T11:12:06;5.47;;;3.03;;
33357;SDS011;19717;42.614;23.418;2022-12-10T11:14:37;8.50;;;3.85;;
33357;SDS011;19717;42.614;23.418;2022-12-10T11:19:35;5.05;;;3.58;;
33357;SDS011;19717;42.614;23.418;2022-12-10T11:22:21;5.40;;;3.00;;
33357;SDS011;19717;42.614;23.418;2022-12-10T11:24:48;2.90;;;2.08;;
33357;SDS011;19717;42.614;23.418;2022-12-10T11:27:36;6.72;;;3.42;;
33357;SDS011;19717;42.614;23.418;2022-12-10T11:30:14;5.53;;;3.80;;
33357;SDS011;19717;42.614;23.418;2022-12-10T11:35:41;5.20;;;2.70;;
33357;SDS011;19717;42.614;23.418;2022-12-10T11:38:20;4.93;;;2.67;;
33357;SDS011;19717;42.614;23.418;2022-12-10T11:46:27;4.55;;;2.28;;
33357;SDS011;19717;42.614;23.418;2022-12-10T11:56:43;7.68;;;3.22;;
33357;SDS011;19717;42.614;23.418;2022-12-10T11:59:33;1.45;;;1.27;;
33357;SDS011;19717;42.614;23.418;2022-12-10T12:17:53;2.88;;;2.22;;
33357;SDS011;19717;42.614;23.418;2022-12-10T12:20:22;4.75;;;1.73;;
33357;SDS011;19717;42.614;23.418;2022-12-10T12:22:59;4.65;;;3.05;;
33357;SDS011;19717;42.614;23.418;2022-12-10T12:25:32;8.35;;;3.00;;
33357;SDS011;19717;42.614;23.418;2022-12-10T12:28:22;4.03;;;2.15;;
33357;SDS011;19717;42.614;23.418;2022-12-10T12:30:47;9.02;;;2.60;;
33357;SDS011;19717;42.614;23.418;2022-12-10T12:33:27;6.05;;;2.78;;
33357;SDS011;19717;42.614;23.418;2022-12-10T12:36:02;6.90;;;3.45;;
33357;SDS011;19717;42.614;23.418;2022-12-10T12:38:31;5.05;;;2.95;;
33357;SDS011;19717;42.614;23.418;2022-12-10T12:43:45;13.80;;;5.32;;
33357;SDS011;19717;42.614;23.418;2022-12-10T12:46:18;8.65;;;3.47;;
33357;SDS011;19717;42.614;23.418;2022-12-10T12:48:49;4.70;;;3.05;;
33357;SDS011;19717;42.614;23.418;2022-12-10T12:51:22;6.32;;;2.85;;
33357;SDS011;19717;42.614;23.418;2022-12-10T12:53:49;4.40;;;3.20;;
33357;SDS011;19717;42.614;23.418;2022-12-10T12:57:19;6.13;;;3.08;;
33357;SDS011;19717;42.614;23.418;2022-12-10T12:59:22;6.50;;;2.50;;
33357;SDS011;19717;42.614;23.418;2022-12-10T13:01:53;11.80;;;2.75;;
33357;SDS011;19717;42.614;23.418;2022-12-10T13:04:23;5.50;;;2.63;;
33357;SDS011;19717;42.614;23.418;2022-12-10T13:09:34;7.07;;;2.92;;
33357;SDS011;19717;42.614;23.418;2022-12-10T13:17:31;23.13;;;9.40;;
33357;SDS011;19717;42.614;23.418;2022-12-10T13:22:43;15.20;;;4.88;;
33357;SDS011;19717;42.614;23.418;2022-12-10T13:25:19;11.68;;;4.00;;
33357;SDS011;19717;42.614;23.418;2022-12-10T13:28:16;9.63;;;3.97;;
33357;SDS011;19717;42.614;23.418;2022-12-10T13:30:42;33.13;;;10.85;;
33357;SDS011;19717;42.614;23.418;2022-12-10T13:33:18;21.27;;;9.40;;
33357;SDS011;19717;42.614;23.418;2022-12-10T13:35:56;11.98;;;6.40;;
33357;SDS011;19717;42.614;23.418;2022-12-10T13:38:24;9.55;;;5.60;;
33357;SDS011;19717;42.614;23.418;2022-12-10T13:40:58;12.52;;;5.30;;
33357;SDS011;19717;42.614;23.418;2022-12-10T13:43:44;5.75;;;3.45;;
33357;SDS011;19717;42.614;23.418;2022-12-10T13:52:32;7.55;;;3.97;;
33357;SDS011;19717;42.614;23.418;2022-12-10T14:00:19;5.82;;;3.60;;
33357;SDS011;19717;42.614;23.418;2022-12-10T14:07:50;2.08;;;1.00;;
33357;SDS011;19717;42.614;23.418;2022-12-10T14:10:18;1.63;;;0.82;;
33357;SDS011;19717;42.614;23.418;2022-12-10T14:12:47;0.75;;;0.73;;
33357;SDS011;19717;42.614;23.418;2022-12-10T14:15:20;3.78;;;2.55;;
33357;SDS011;19717;42.614;23.418;2022-12-10T14:17:49;3.83;;;2.72;;
33357;SDS011;19717;42.614;23.418;2022-12-10T14:20:34;5.97;;;3.58;;
33357;SDS011;19717;42.614;23.418;2022-12-10T14:23:04;5.25;;;2.85;;
33357;SDS011;19717;42.614;23.418;2022-12-10T14:26:09;10.00;;;3.85;;
33357;SDS011;19717;42.614;23.418;2022-12-10T14:28:40;8.02;;;4.80;;
33357;SDS011;19717;42.614;23.418;2022-12-10T14:31:09;7.03;;;3.25;;
33357;SDS011;19717;42.614;23.418;2022-12-10T14:33:38;6.55;;;2.78;;
33357;SDS011;19717;42.614;23.418;2022-12-10T14:36:04;5.50;;;3.25;;
33357;SDS011;19717;42.614;23.418;2022-12-10T14:38:31;5.93;;;3.60;;
33357;SDS011;19717;42.614;23.418;2022-12-10T14:40:59;6.65;;;3.40;;
33357;SDS011;19717;42.614;23.418;2022-12-10T14:43:37;8.23;;;3.70;;
33357;SDS011;19717;42.614;23.418;2022-12-10T14:46:05;8.30;;;3.53;;
33357;SDS011;19717;42.614;23.418;2022-12-10T14:48:38;10.07;;;3.95;;
33357;SDS011;19717;42.614;23.418;2022-12-10T14:51:10;9.38;;;5.15;;
33357;SDS011;19717;42.614;23.418;2022-12-10T14:53:38;8.75;;;4.53;;
33357;SDS011;19717;42.614;23.418;2022-12-10T14:56:04;13.15;;;5.95;;
33357;SDS011;19717;42.614;23.418;2022-12-10T14:58:42;16.80;;;6.55;;
33357;SDS011;19717;42.614;23.418;2022-12-10T15:01:30;25.95;;;11.77;;
33357;SDS011;19717;42.614;23.418;2022-12-10T15:03:58;24.88;;;13.60;;
33357;SDS011;19717;42.614;23.418;2022-12-10T15:06:27;26.55;;;13.25;;
33357;SDS011;19717;42.614;23.418;2022-12-10T15:08:55;32.25;;;13.18;;
33357;SDS011;19717;42.614;23.418;2022-12-10T15:11:23;35.92;;;16.05;;
33357;SDS011;19717;42.614;23.418;2022-12-10T15:13:51;38.03;;;15.10;;
33357;SDS011;19717;42.614;23.418;2022-12-10T15:18:54;20.20;;;7.45;;
33357;SDS011;19717;42.614;23.418;2022-12-10T15:21:22;28.95;;;11.18;;
33357;SDS011;19717;42.614;23.418;2022-12-10T15:23:50;18.08;;;6.22;;
33357;SDS011;19717;42.614;23.418;2022-12-10T15:26:23;13.65;;;5.43;;
33357;SDS011;19717;42.614;23.418;2022-12-10T15:28:52;10.18;;;6.43;;
33357;SDS011;19717;42.614;23.418;2022-12-10T15:33:47;12.77;;;5.50;;
33357;SDS011;19717;42.614;23.418;2022-12-10T15:38:48;17.17;;;7.03;;
33357;SDS011;19717;42.614;23.418;2022-12-10T15:41:21;20.58;;;9.38;;
33357;SDS011;19717;42.614;23.418;2022-12-10T15:43:58;44.50;;;14.98;;
33357;SDS011;19717;42.614;23.418;2022-12-10T15:46:26;39.08;;;14.15;;
33357;SDS011;19717;42.614;23.418;2022-12-10T15:48:52;41.63;;;18.38;;
33357;SDS011;19717;42.614;23.418;2022-12-10T15:51:18;47.25;;;15.43;;
33357;SDS011;19717;42.614;23.418;2022-12-10T15:53:44;24.27;;;8.90;;
33357;SDS011;19717;42.614;23.418;2022-12-10T15:56:10;18.30;;;7.85;;
33357;SDS011;19717;42.614;23.418;2022-12-10T15:58:36;28.10;;;10.82;;
33357;SDS011;19717;42.614;23.418;2022-12-10T16:01:02;25.52;;;12.18;;
33357;SDS011;19717;42.614;23.418;2022-12-10T16:03:28;24.58;;;8.88;;
33357;SDS011;19717;42.614;23.418;2022-12-10T16:05:54;19.20;;;8.65;;
33357;SDS011;19717;42.614;23.418;2022-12-10T16:08:22;13.73;;;6.95;;
33357;SDS011;19717;42.614;23.418;2022-12-10T16:10:49;13.18;;;5.72;;
33357;SDS011;19717;42.614;23.418;2022-12-10T16:13:19;18.23;;;7.25;;
33357;SDS011;19717;42.614;23.418;2022-12-10T16:15:48;26.20;;;8.75;;
33357;SDS011;19717;42.614;23.418;2022-12-10T16:18:15;17.92;;;8.00;;
33357;SDS011;19717;42.614;23.418;2022-12-10T16:20:41;14.82;;;7.50;;
33357;SDS011;19717;42.614;23.418;2022-12-10T16:23:07;21.17;;;8.70;;
33357;SDS011;19717;42.614;23.418;2022-12-10T16:25:33;12.52;;;6.28;;
33357;SDS011;19717;42.614;23.418;2022-12-10T16:28:00;14.77;;;8.32;;
33357;SDS011;19717;42.614;23.418;2022-12-10T16:32:53;20.67;;;6.72;;
33357;SDS011;19717;42.614;23.418;2022-12-10T16:35:20;15.13;;;7.70;;
33357;SDS011;19717;42.614;23.418;2022-12-10T16:37:47;11.93;;;7.00;;